createdAt,value
2019-03-10T00:00:01.587Z,0.00
2019-03-10T00:01:01.529Z,0.00
2019-03-10T00:02:01.525Z,0.00
2019-03-10T00:03:01.521Z,0.00
2019-03-10T00:04:01.517Z,0.00
2019-03-10T00:05:01.552Z,0.00
2019-03-10T00:06:01.504Z,0.00
2019-03-10T00:07:01.510Z,0.00
2019-03-10T00:08:01.499Z,0.00
2019-03-10T00:09:01.532Z,0.00
2019-03-10T00:10:01.492Z,0.00
2019-03-10T00:11:01.485Z,0.00
2019-03-10T00:12:01.484Z,0.00
2019-03-10T00:13:01.484Z,0.00
2019-03-10T00:14:01.512Z,0.00
2019-03-10T00:15:01.475Z,0.00
2019-03-10T00:16:01.472Z,0.00
2019-03-10T00:17:01.465Z,0.00
2019-03-10T00:18:01.457Z,0.00
2019-03-10T00:19:01.502Z,0.00
2019-03-10T00:20:01.465Z,0.00
2019-03-10T00:21:01.448Z,0.00
2019-03-10T00:22:01.494Z,0.00
2019-03-10T00:23:01.440Z,0.00
2019-03-10T00:24:01.467Z,0.00
2019-03-10T00:25:01.435Z,0.00
2019-03-10T00:26:01.427Z,0.00
2019-03-10T00:27:01.424Z,0.00
2019-03-10T00:28:01.424Z,0.00
2019-03-10T00:29:01.525Z,0.00
2019-03-10T00:30:01.415Z,0.00
2019-03-10T00:31:01.981Z,0.00
2019-03-10T00:32:01.406Z,0.00
2019-03-10T00:33:01.400Z,0.00
2019-03-10T00:34:01.431Z,0.00
2019-03-10T00:35:01.387Z,0.00
2019-03-10T00:36:01.389Z,0.00
2019-03-10T00:37:01.385Z,0.00
2019-03-10T00:38:01.418Z,0.00
2019-03-10T00:39:01.379Z,0.00
2019-03-10T00:40:01.411Z,0.00
2019-03-10T00:41:01.368Z,0.00
2019-03-10T00:42:01.366Z,0.00
2019-03-10T00:43:01.360Z,0.00
2019-03-10T00:44:01.390Z,0.00
2019-03-10T00:45:01.356Z,0.00
2019-03-10T00:46:01.347Z,0.00
2019-03-10T00:47:01.347Z,0.00
2019-03-10T00:48:01.348Z,0.00
2019-03-10T00:49:01.382Z,0.00
2019-03-10T00:50:01.338Z,0.00
2019-03-10T00:51:01.336Z,0.00
2019-03-10T00:52:01.329Z,0.00
2019-03-10T00:53:01.355Z,0.00
2019-03-10T00:54:01.323Z,0.00
2019-03-10T00:55:01.348Z,0.00
2019-03-10T00:56:01.312Z,0.00
2019-03-10T00:57:01.307Z,0.00
2019-03-10T00:58:01.301Z,0.00
2019-03-10T00:59:01.332Z,0.00
2019-03-10T01:00:01.295Z,0.00
2019-03-10T01:01:01.291Z,0.00
2019-03-10T01:02:01.320Z,0.00
2019-03-10T01:03:01.280Z,0.00
2019-03-10T01:04:01.315Z,0.00
2019-03-10T01:05:01.276Z,0.00
2019-03-10T01:06:01.273Z,0.00
2019-03-10T01:07:01.842Z,0.00
2019-03-10T01:08:01.300Z,0.00
2019-03-10T01:09:01.258Z,0.00
2019-03-10T01:10:01.268Z,0.00
2019-03-10T01:11:01.255Z,0.00
2019-03-10T01:12:01.251Z,0.00
2019-03-10T01:13:01.284Z,0.00
2019-03-10T01:14:01.243Z,0.00
2019-03-10T01:15:01.243Z,0.00
2019-03-10T01:16:01.235Z,0.00
2019-03-10T01:17:01.235Z,0.00
2019-03-10T01:18:01.262Z,0.00
2019-03-10T01:19:01.224Z,0.00
2019-03-10T01:20:01.229Z,0.00
2019-03-10T01:21:01.215Z,0.00
2019-03-10T01:22:01.231Z,0.00
2019-03-10T01:23:01.260Z,0.00
2019-03-10T01:24:01.204Z,0.00
2019-03-10T01:25:01.203Z,0.00
2019-03-10T01:26:01.200Z,0.00
2019-03-10T01:27:01.195Z,0.00
2019-03-10T01:28:01.237Z,0.00
2019-03-10T01:29:01.191Z,0.00
2019-03-10T01:30:01.180Z,0.00
2019-03-10T01:31:01.179Z,0.00
2019-03-10T01:32:01.175Z,0.00
2019-03-10T01:33:01.215Z,0.00
2019-03-10T01:34:01.164Z,0.00
2019-03-10T01:35:01.165Z,0.00
2019-03-10T01:36:01.156Z,0.00
2019-03-10T01:37:01.154Z,0.00
2019-03-10T01:38:01.188Z,0.00
2019-03-10T01:39:01.151Z,0.00
2019-03-10T01:40:01.150Z,0.00
2019-03-10T01:41:01.142Z,0.00
2019-03-10T01:42:01.134Z,0.00
2019-03-10T01:43:01.168Z,0.00
2019-03-10T01:44:01.167Z,0.00
2019-03-10T01:45:01.127Z,0.00
2019-03-10T01:46:01.122Z,0.00
2019-03-10T01:47:01.122Z,0.00
2019-03-10T01:48:01.121Z,0.00
2019-03-10T01:49:01.146Z,0.00
2019-03-10T01:50:01.113Z,0.00
2019-03-10T01:51:01.108Z,0.00
2019-03-10T01:52:01.099Z,0.00
2019-03-10T01:53:01.136Z,0.00
2019-03-10T01:54:01.094Z,0.00
2019-03-10T01:55:01.095Z,0.00
2019-03-10T01:56:01.087Z,0.00
2019-03-10T01:57:01.085Z,0.00
2019-03-10T01:58:01.112Z,0.00
2019-03-10T01:59:01.079Z,0.00
2019-03-10T02:00:01.067Z,0.00
2019-03-10T02:01:01.076Z,0.00
2019-03-10T02:02:01.067Z,0.00
2019-03-10T02:03:01.097Z,0.00
2019-03-10T02:04:01.064Z,0.00
2019-03-10T02:05:01.054Z,0.00
2019-03-10T02:06:01.049Z,0.00
2019-03-10T02:07:01.047Z,0.00
2019-03-10T02:08:01.082Z,0.00
2019-03-10T02:09:01.044Z,0.00
2019-03-10T02:10:01.044Z,0.00
2019-03-10T02:11:01.037Z,0.00
2019-03-10T02:12:01.061Z,0.00
2019-03-10T02:13:01.023Z,0.00
2019-03-10T02:14:01.058Z,0.00
2019-03-10T02:15:01.021Z,0.00
2019-03-10T02:16:01.018Z,0.00
2019-03-10T02:17:01.010Z,0.00
2019-03-10T02:18:01.041Z,0.00
2019-03-10T02:19:01.000Z,0.00
2019-03-10T02:20:01.002Z,0.00
2019-03-10T02:21:00.997Z,0.00
2019-03-10T02:22:00.990Z,0.00
2019-03-10T02:23:01.057Z,0.00
2019-03-10T02:24:00.982Z,0.00
2019-03-10T02:25:00.975Z,0.00
2019-03-10T02:26:00.979Z,0.00
2019-03-10T02:27:00.970Z,0.00
2019-03-10T02:28:01.009Z,0.00
2019-03-10T02:29:00.966Z,0.00
2019-03-10T02:30:00.976Z,0.00
2019-03-10T02:31:00.960Z,0.00
2019-03-10T02:32:00.959Z,0.00
2019-03-10T02:33:00.981Z,0.00
2019-03-10T02:34:00.942Z,0.00
2019-03-10T02:35:00.934Z,0.00
2019-03-10T02:36:00.923Z,0.00
2019-03-10T02:37:00.953Z,0.00
2019-03-10T02:38:00.946Z,0.00
2019-03-10T02:39:00.918Z,0.00
2019-03-10T02:40:00.932Z,0.00
2019-03-10T02:41:00.906Z,0.00
2019-03-10T02:42:00.902Z,0.00
2019-03-10T02:43:00.935Z,0.00
2019-03-10T02:44:00.922Z,0.00
2019-03-10T02:45:00.928Z,0.00
2019-03-10T02:46:00.884Z,0.00
2019-03-10T02:47:00.887Z,0.00
2019-03-10T02:48:00.874Z,0.00
2019-03-10T02:49:00.879Z,0.00
2019-03-10T02:50:00.906Z,0.00
2019-03-10T02:51:00.872Z,0.00
2019-03-10T02:52:00.865Z,0.00
2019-03-10T02:53:00.856Z,0.00
2019-03-10T02:54:00.865Z,0.00
2019-03-10T02:55:01.001Z,0.00
2019-03-10T02:56:00.854Z,0.00
2019-03-10T02:57:00.849Z,0.00
2019-03-10T02:58:00.841Z,0.00
2019-03-10T02:59:00.843Z,0.00
2019-03-10T03:00:00.874Z,0.00
2019-03-10T03:01:00.833Z,0.00
2019-03-10T03:02:00.829Z,0.00
2019-03-10T03:03:00.824Z,0.00
2019-03-10T03:04:00.822Z,0.00
2019-03-10T03:05:00.856Z,0.00
2019-03-10T03:06:00.811Z,0.00
2019-03-10T03:07:00.811Z,0.00
2019-03-10T03:08:00.806Z,0.00
2019-03-10T03:09:00.801Z,0.00
2019-03-10T03:10:00.827Z,0.00
2019-03-10T03:11:00.795Z,0.00
2019-03-10T03:12:00.786Z,0.00
2019-03-10T03:13:00.790Z,0.00
2019-03-10T03:14:00.781Z,0.00
2019-03-10T03:15:00.802Z,0.00
2019-03-10T03:16:00.809Z,0.00
2019-03-10T03:17:00.775Z,0.00
2019-03-10T03:18:00.765Z,0.00
2019-03-10T03:19:00.765Z,0.00
2019-03-10T03:20:00.761Z,0.00
2019-03-10T03:21:00.784Z,0.00
2019-03-10T03:22:00.751Z,0.00
2019-03-10T03:23:00.750Z,0.00
2019-03-10T03:24:00.745Z,0.00
2019-03-10T03:25:00.788Z,0.00
2019-03-10T03:26:00.760Z,0.00
2019-03-10T03:27:02.485Z,0.00
2019-03-10T03:28:00.726Z,0.00
2019-03-10T03:29:00.785Z,0.00
2019-03-10T03:30:00.721Z,0.00
2019-03-10T03:31:00.754Z,0.00
2019-03-10T03:32:00.734Z,0.00
2019-03-10T03:33:00.722Z,0.00
2019-03-10T03:34:00.714Z,0.00
2019-03-10T03:35:00.973Z,0.00
2019-03-10T03:36:00.737Z,0.00
2019-03-10T03:37:00.723Z,0.00
2019-03-10T03:38:00.688Z,0.00
2019-03-10T03:39:00.702Z,0.00
2019-03-10T03:40:00.681Z,0.00
2019-03-10T03:41:00.709Z,0.00
2019-03-10T03:42:00.677Z,0.00
2019-03-10T03:43:00.677Z,0.00
2019-03-10T03:44:00.663Z,0.00
2019-03-10T03:45:00.677Z,0.00
2019-03-10T03:46:00.692Z,0.00
2019-03-10T03:47:00.653Z,0.00
2019-03-10T03:48:00.649Z,0.00
2019-03-10T03:49:00.653Z,0.00
2019-03-10T03:50:00.707Z,0.00
2019-03-10T03:51:00.688Z,0.00
2019-03-10T03:52:00.665Z,0.00
2019-03-10T03:53:00.627Z,0.00
2019-03-10T03:54:00.629Z,0.00
2019-03-10T03:55:00.626Z,0.00
2019-03-10T03:56:00.648Z,0.00
2019-03-10T03:57:00.621Z,0.00
2019-03-10T03:58:00.656Z,0.00
2019-03-10T03:59:00.616Z,0.00
2019-03-10T04:00:00.636Z,0.00
2019-03-10T04:01:00.648Z,0.00
2019-03-10T04:02:00.647Z,0.00
2019-03-10T04:03:00.592Z,0.00
2019-03-10T04:04:00.617Z,0.00
2019-03-10T04:05:00.595Z,0.00
2019-03-10T04:06:00.622Z,0.00
2019-03-10T04:07:00.592Z,0.00
2019-03-10T04:08:00.580Z,0.00
2019-03-10T04:09:00.671Z,0.00
2019-03-10T04:10:00.594Z,0.00
2019-03-10T04:11:00.607Z,0.00
2019-03-10T04:12:00.556Z,0.00
2019-03-10T04:13:00.558Z,0.00
2019-03-10T04:14:00.553Z,0.00
2019-03-10T04:15:00.548Z,0.00
2019-03-10T04:16:00.553Z,0.00
2019-03-10T04:17:00.572Z,0.00
2019-03-10T04:18:00.536Z,0.00
2019-03-10T04:19:00.531Z,0.00
2019-03-10T04:20:00.529Z,0.00
2019-03-10T04:21:00.526Z,0.00
2019-03-10T04:22:00.557Z,0.00
2019-03-10T04:23:00.524Z,0.00
2019-03-10T04:24:00.529Z,0.00
2019-03-10T04:25:00.574Z,0.00
2019-03-10T04:26:00.507Z,0.00
2019-03-10T04:27:00.528Z,0.00
2019-03-10T04:28:00.530Z,0.00
2019-03-10T04:29:00.496Z,0.00
2019-03-10T04:30:00.492Z,0.00
2019-03-10T04:31:00.496Z,0.00
2019-03-10T04:32:00.517Z,0.00
2019-03-10T04:33:00.485Z,0.00
2019-03-10T04:34:00.479Z,0.00
2019-03-10T04:35:00.474Z,0.00
2019-03-10T04:36:00.477Z,0.00
2019-03-10T04:37:00.495Z,0.00
2019-03-10T04:38:00.464Z,0.00
2019-03-10T04:39:00.462Z,0.00
2019-03-10T04:40:00.451Z,0.00
2019-03-10T04:41:00.446Z,0.00
2019-03-10T04:42:00.502Z,0.00
2019-03-10T04:43:00.447Z,0.00
2019-03-10T04:44:00.443Z,0.00
2019-03-10T04:45:00.444Z,0.00
2019-03-10T04:46:00.439Z,0.00
2019-03-10T04:47:00.460Z,0.00
2019-03-10T04:48:00.427Z,0.00
2019-03-10T04:49:00.534Z,0.00
2019-03-10T04:50:00.422Z,0.00
2019-03-10T04:51:00.419Z,0.00
2019-03-10T04:52:00.443Z,0.00
2019-03-10T04:53:00.411Z,0.00
2019-03-10T04:54:00.406Z,0.00
2019-03-10T04:55:00.403Z,0.00
2019-03-10T04:56:00.402Z,0.00
2019-03-10T04:57:00.434Z,0.00
2019-03-10T04:58:00.422Z,0.00
2019-03-10T04:59:00.398Z,0.00
2019-03-10T05:00:00.380Z,0.00
2019-03-10T05:01:00.385Z,0.00
2019-03-10T05:02:00.377Z,0.00
2019-03-10T05:03:00.399Z,0.00
2019-03-10T05:04:00.376Z,0.00
2019-03-10T05:05:00.374Z,0.00
2019-03-10T05:06:00.363Z,0.00
2019-03-10T05:07:00.361Z,0.00
2019-03-10T05:08:00.383Z,0.00
2019-03-10T05:09:00.350Z,0.00
2019-03-10T05:10:00.363Z,0.00
2019-03-10T05:11:00.347Z,0.00
2019-03-10T05:12:00.338Z,0.00
2019-03-10T05:13:00.364Z,0.00
2019-03-10T05:14:00.371Z,0.00
2019-03-10T05:15:00.370Z,0.00
2019-03-10T05:16:00.326Z,0.00
2019-03-10T05:17:00.322Z,0.00
2019-03-10T05:18:00.348Z,0.00
2019-03-10T05:19:00.311Z,0.00
2019-03-10T05:20:00.374Z,0.00
2019-03-10T05:21:00.313Z,0.00
2019-03-10T05:22:00.318Z,0.00
2019-03-10T05:23:00.327Z,0.00
2019-03-10T05:24:00.300Z,0.00
2019-03-10T05:25:00.349Z,0.00
2019-03-10T05:26:00.302Z,0.00
2019-03-10T05:27:00.290Z,0.00
2019-03-10T05:28:00.311Z,0.00
2019-03-10T05:29:00.279Z,0.00
2019-03-10T05:30:00.309Z,0.00
2019-03-10T05:31:00.275Z,0.00
2019-03-10T05:32:00.269Z,5.63
2019-03-10T05:33:00.294Z,5.63
2019-03-10T05:34:00.295Z,5.63
2019-03-10T05:35:00.369Z,5.63
2019-03-10T05:36:00.253Z,5.63
2019-03-10T05:37:00.256Z,5.63
2019-03-10T05:38:00.278Z,5.63
2019-03-10T05:39:00.243Z,11.25
2019-03-10T05:40:00.318Z,11.25
2019-03-10T05:41:00.234Z,11.25
2019-03-10T05:42:00.237Z,11.25
2019-03-10T05:43:00.259Z,11.25
2019-03-10T05:44:00.226Z,11.25
2019-03-10T05:45:00.336Z,11.25
2019-03-10T05:46:00.215Z,11.25
2019-03-10T05:47:00.213Z,16.88
2019-03-10T05:48:00.245Z,16.88
2019-03-10T05:49:00.206Z,16.88
2019-03-10T05:50:00.309Z,16.88
2019-03-10T05:51:00.204Z,16.88
2019-03-10T05:52:00.223Z,16.88
2019-03-10T05:53:00.831Z,22.50
2019-03-10T05:54:00.186Z,22.50
2019-03-10T05:55:00.387Z,22.50
2019-03-10T05:56:00.182Z,28.13
2019-03-10T05:57:00.181Z,28.13
2019-03-10T05:58:00.207Z,28.13
2019-03-10T05:59:00.178Z,33.75
2019-03-10T06:00:00.336Z,33.75
2019-03-10T06:01:00.164Z,33.75
2019-03-10T06:02:00.157Z,33.75
2019-03-10T06:03:00.189Z,33.75
2019-03-10T06:04:00.153Z,39.38
2019-03-10T06:05:00.348Z,39.38
2019-03-10T06:06:00.147Z,39.38
2019-03-10T06:07:00.139Z,45.00
2019-03-10T06:08:00.169Z,45.00
2019-03-10T06:09:00.135Z,50.63
2019-03-10T06:10:00.135Z,50.63
2019-03-10T06:11:00.966Z,56.25
2019-03-10T06:12:00.154Z,61.88
2019-03-10T06:13:00.162Z,67.50
2019-03-10T06:14:00.143Z,67.50
2019-03-10T06:15:00.163Z,73.13
2019-03-10T06:16:00.108Z,73.13
2019-03-10T06:17:00.104Z,78.75
2019-03-10T06:18:00.106Z,78.75
2019-03-10T06:19:00.147Z,84.38
2019-03-10T06:20:00.181Z,90.00
2019-03-10T06:21:00.099Z,95.63
2019-03-10T06:22:00.086Z,101.25
2019-03-10T06:23:00.085Z,101.25
2019-03-10T06:24:00.162Z,106.88
2019-03-10T06:25:00.182Z,112.50
2019-03-10T06:26:00.071Z,112.50
2019-03-10T06:27:00.073Z,112.50
2019-03-10T06:28:00.074Z,112.50
2019-03-10T06:29:00.102Z,106.88
2019-03-10T06:30:00.061Z,95.63
2019-03-10T06:31:00.062Z,84.38
2019-03-10T06:32:00.055Z,73.13
2019-03-10T06:33:00.051Z,67.50
2019-03-10T06:34:00.080Z,67.50
2019-03-10T06:35:00.079Z,67.50
2019-03-10T06:36:00.040Z,67.50
2019-03-10T06:37:00.045Z,61.88
2019-03-10T06:38:00.030Z,50.63
2019-03-10T06:39:00.065Z,45.00
2019-03-10T06:40:00.030Z,45.00
2019-03-10T06:41:00.022Z,39.38
2019-03-10T06:42:00.021Z,39.38
2019-03-10T06:43:00.012Z,39.38
2019-03-10T06:44:00.042Z,39.38
2019-03-10T06:45:00.011Z,45.00
2019-03-10T06:46:00.010Z,50.63
2019-03-10T06:47:00.007Z,56.25
2019-03-10T06:48:00.000Z,61.88
2019-03-10T06:49:00.033Z,73.13
2019-03-10T06:50:00.029Z,78.75
2019-03-10T06:50:59.997Z,84.38
2019-03-10T06:51:59.992Z,84.38
2019-03-10T06:52:59.985Z,90.00
2019-03-10T06:54:00.004Z,90.00
2019-03-10T06:54:59.977Z,90.00
2019-03-10T06:55:59.975Z,101.25
2019-03-10T06:56:59.969Z,106.88
2019-03-10T06:57:59.964Z,112.50
2019-03-10T06:58:59.997Z,112.50
2019-03-10T06:59:59.961Z,101.25
2019-03-10T07:00:59.966Z,101.25
2019-03-10T07:01:59.950Z,106.88
2019-03-10T07:02:59.944Z,112.50
2019-03-10T07:03:59.964Z,112.50
2019-03-10T07:04:59.936Z,112.50
2019-03-10T07:05:59.944Z,106.88
2019-03-10T07:06:59.933Z,106.88
2019-03-10T07:07:59.924Z,112.50
2019-03-10T07:08:59.952Z,112.50
2019-03-10T07:09:59.913Z,112.50
2019-03-10T07:10:59.975Z,112.50
2019-03-10T07:11:59.921Z,112.50
2019-03-10T07:12:59.904Z,112.50
2019-03-10T07:13:59.929Z,118.13
2019-03-10T07:14:59.895Z,118.13
2019-03-10T07:15:59.891Z,123.75
2019-03-10T07:16:59.892Z,129.38
2019-03-10T07:17:59.879Z,135.00
2019-03-10T07:18:59.908Z,140.63
2019-03-10T07:19:59.880Z,157.50
2019-03-10T07:20:59.882Z,168.75
2019-03-10T07:21:59.879Z,180.00
2019-03-10T07:22:59.863Z,185.63
2019-03-10T07:23:59.888Z,196.88
2019-03-10T07:24:59.851Z,208.13
2019-03-10T07:25:59.848Z,213.75
2019-03-10T07:27:02.184Z,213.75
2019-03-10T07:27:59.844Z,219.38
2019-03-10T07:28:59.869Z,225.00
2019-03-10T07:29:59.860Z,236.25
2019-03-10T07:30:59.828Z,253.13
2019-03-10T07:31:59.821Z,258.75
2019-03-10T07:32:59.819Z,270.00
2019-03-10T07:33:59.816Z,270.00
2019-03-10T07:34:59.840Z,275.63
2019-03-10T07:35:59.811Z,286.88
2019-03-10T07:36:59.804Z,303.75
2019-03-10T07:37:59.803Z,315.00
2019-03-10T07:38:59.795Z,315.00
2019-03-10T07:39:59.815Z,309.38
2019-03-10T07:40:59.788Z,298.13
2019-03-10T07:41:59.784Z,298.13
2019-03-10T07:42:59.782Z,298.13
2019-03-10T07:43:59.768Z,292.50
2019-03-10T07:44:59.802Z,286.88
2019-03-10T07:45:59.763Z,286.88
2019-03-10T07:46:59.760Z,286.88
2019-03-10T07:47:59.757Z,292.50
2019-03-10T07:48:59.751Z,292.50
2019-03-10T07:49:59.806Z,281.25
2019-03-10T07:50:59.743Z,275.63
2019-03-10T07:51:59.741Z,275.63
2019-03-10T07:52:59.733Z,275.63
2019-03-10T07:53:59.731Z,281.25
2019-03-10T07:54:59.756Z,281.25
2019-03-10T07:55:59.731Z,281.25
2019-03-10T07:56:59.742Z,286.88
2019-03-10T07:57:59.722Z,298.13
2019-03-10T07:58:59.717Z,292.50
2019-03-10T07:59:59.740Z,281.25
2019-03-10T08:00:59.732Z,275.63
2019-03-10T08:01:59.701Z,286.88
2019-03-10T08:02:59.699Z,303.75
2019-03-10T08:03:59.703Z,303.75
2019-03-10T08:04:59.716Z,292.50
2019-03-10T08:05:59.687Z,275.63
2019-03-10T08:06:59.680Z,264.38
2019-03-10T08:07:59.682Z,258.75
2019-03-10T08:09:00.538Z,264.38
2019-03-10T08:09:59.670Z,264.38
2019-03-10T08:10:59.699Z,270.00
2019-03-10T08:11:59.663Z,275.63
2019-03-10T08:12:59.667Z,270.00
2019-03-10T08:13:59.713Z,264.38
2019-03-10T08:14:59.648Z,253.13
2019-03-10T08:15:59.680Z,230.63
2019-03-10T08:16:59.644Z,208.13
2019-03-10T08:17:59.648Z,196.88
2019-03-10T08:18:59.635Z,208.13
2019-03-10T08:20:01.458Z,213.75
2019-03-10T08:20:59.656Z,213.75
2019-03-10T08:21:59.623Z,202.50
2019-03-10T08:22:59.619Z,185.63
2019-03-10T08:23:59.615Z,174.38
2019-03-10T08:24:59.615Z,174.38
2019-03-10T08:25:59.644Z,180.00
2019-03-10T08:26:59.635Z,168.75
2019-03-10T08:28:01.871Z,157.50
2019-03-10T08:28:59.594Z,151.88
2019-03-10T08:29:59.602Z,151.88
2019-03-10T08:30:59.618Z,157.50
2019-03-10T08:31:59.586Z,174.38
2019-03-10T08:32:59.616Z,191.25
2019-03-10T08:33:59.576Z,230.63
2019-03-10T08:34:59.598Z,270.00
2019-03-10T08:35:59.598Z,281.25
2019-03-10T08:36:59.560Z,253.13
2019-03-10T08:37:59.565Z,230.63
2019-03-10T08:38:59.556Z,219.38
2019-03-10T08:39:59.552Z,196.88
2019-03-10T08:40:59.547Z,196.88
2019-03-10T08:41:59.571Z,213.75
2019-03-10T08:42:59.540Z,241.88
2019-03-10T08:43:59.532Z,264.38
2019-03-10T08:44:59.531Z,286.88
2019-03-10T08:45:59.526Z,298.13
2019-03-10T08:46:59.554Z,331.88
2019-03-10T08:47:59.577Z,399.38
2019-03-10T08:48:59.515Z,444.38
2019-03-10T08:49:59.512Z,444.38
2019-03-10T08:50:59.511Z,416.25
2019-03-10T08:51:59.536Z,410.63
2019-03-10T08:52:59.503Z,427.50
2019-03-10T08:53:59.498Z,416.25
2019-03-10T08:54:59.490Z,393.75
2019-03-10T08:55:59.489Z,382.50
2019-03-10T08:56:59.515Z,388.13
2019-03-10T08:57:59.488Z,427.50
2019-03-10T08:58:59.478Z,489.38
2019-03-10T08:59:59.477Z,489.38
2019-03-10T09:00:59.472Z,450.00
2019-03-10T09:01:59.495Z,472.50
2019-03-10T09:02:59.462Z,500.63
2019-03-10T09:03:59.461Z,551.25
2019-03-10T09:04:59.454Z,573.75
2019-03-10T09:05:59.447Z,540.00
2019-03-10T09:06:59.474Z,495.00
2019-03-10T09:07:59.449Z,466.88
2019-03-10T09:08:59.435Z,438.75
2019-03-10T09:09:59.434Z,450.00
2019-03-10T09:10:59.443Z,444.38
2019-03-10T09:11:59.424Z,416.25
2019-03-10T09:12:59.455Z,399.38
2019-03-10T09:13:59.422Z,416.25
2019-03-10T09:14:59.418Z,461.25
2019-03-10T09:15:59.418Z,489.38
2019-03-10T09:16:59.410Z,517.50
2019-03-10T09:17:59.434Z,551.25
2019-03-10T09:18:59.414Z,590.63
2019-03-10T09:19:59.407Z,607.50
2019-03-10T09:20:59.415Z,573.75
2019-03-10T09:22:00.311Z,495.00
2019-03-10T09:22:59.642Z,483.75
2019-03-10T09:23:59.421Z,506.25
2019-03-10T09:24:59.382Z,556.88
2019-03-10T09:25:59.970Z,585.00
2019-03-10T09:26:59.377Z,517.50
2019-03-10T09:27:59.377Z,579.38
2019-03-10T09:28:59.417Z,635.63
2019-03-10T09:29:59.410Z,613.13
2019-03-10T09:30:59.376Z,562.50
2019-03-10T09:31:59.382Z,579.38
2019-03-10T09:32:59.358Z,596.25
2019-03-10T09:33:59.386Z,613.13
2019-03-10T09:34:59.353Z,641.25
2019-03-10T09:35:59.348Z,646.88
2019-03-10T09:36:59.342Z,680.63
2019-03-10T09:37:59.347Z,708.75
2019-03-10T09:38:59.379Z,742.50
2019-03-10T09:39:59.337Z,658.13
2019-03-10T09:40:59.336Z,573.75
2019-03-10T09:41:59.333Z,601.88
2019-03-10T09:42:59.335Z,720.00
2019-03-10T09:43:59.357Z,787.50
2019-03-10T09:44:59.331Z,810.00
2019-03-10T09:45:59.359Z,708.75
2019-03-10T09:46:59.318Z,663.75
2019-03-10T09:47:59.320Z,630.00
2019-03-10T09:48:59.341Z,596.25
2019-03-10T09:49:59.321Z,556.88
2019-03-10T09:50:59.347Z,545.63
2019-03-10T09:51:59.305Z,601.88
2019-03-10T09:52:59.304Z,635.63
2019-03-10T09:53:59.325Z,720.00
2019-03-10T09:55:01.047Z,753.75
2019-03-10T09:55:59.300Z,624.38
2019-03-10T09:57:00.908Z,669.38
2019-03-10T09:57:59.290Z,641.25
2019-03-10T09:58:59.322Z,635.63
2019-03-10T09:59:59.283Z,669.38
2019-03-10T10:00:59.290Z,590.63
2019-03-10T10:01:59.289Z,590.63
2019-03-10T10:02:59.284Z,573.75
2019-03-10T10:03:59.349Z,433.13
2019-03-10T10:04:59.277Z,303.75
2019-03-10T10:05:59.270Z,326.25
2019-03-10T10:06:59.272Z,466.88
2019-03-10T10:07:59.268Z,540.00
2019-03-10T10:08:59.273Z,489.38
2019-03-10T10:09:59.292Z,399.38
2019-03-10T10:10:59.262Z,483.75
2019-03-10T10:11:59.263Z,765.00
2019-03-10T10:12:59.260Z,641.25
2019-03-10T10:13:59.251Z,596.25
2019-03-10T10:14:59.289Z,523.13
2019-03-10T10:15:59.254Z,461.25
2019-03-10T10:16:59.245Z,551.25
2019-03-10T10:17:59.245Z,686.25
2019-03-10T10:18:59.254Z,821.25
2019-03-10T10:19:59.278Z,871.88
2019-03-10T10:20:59.243Z,720.00
2019-03-10T10:21:59.235Z,838.13
2019-03-10T10:22:59.237Z,731.25
2019-03-10T10:23:59.229Z,562.50
2019-03-10T10:24:59.261Z,478.13
2019-03-10T10:25:59.264Z,399.38
2019-03-10T10:26:59.224Z,405.00
2019-03-10T10:27:59.225Z,450.00
2019-03-10T10:28:59.225Z,399.38
2019-03-10T10:29:59.246Z,388.13
2019-03-10T10:30:59.227Z,416.25
2019-03-10T10:31:59.219Z,444.38
2019-03-10T10:32:59.217Z,438.75
2019-03-10T10:33:59.213Z,478.13
2019-03-10T10:34:59.245Z,511.88
2019-03-10T10:35:59.238Z,427.50
2019-03-10T10:36:59.215Z,393.75
2019-03-10T10:37:59.222Z,376.88
2019-03-10T10:38:59.209Z,388.13
2019-03-10T10:39:59.231Z,472.50
2019-03-10T10:40:59.212Z,635.63
2019-03-10T10:41:59.194Z,686.25
2019-03-10T10:42:59.197Z,748.13
2019-03-10T10:43:59.234Z,658.13
2019-03-10T10:44:59.232Z,613.13
2019-03-10T10:45:59.197Z,590.63
2019-03-10T10:46:59.199Z,691.88
2019-03-10T10:47:59.196Z,652.50
2019-03-10T10:48:59.193Z,680.63
2019-03-10T10:49:59.222Z,916.88
2019-03-10T10:50:59.215Z,911.25
2019-03-10T10:51:59.191Z,1046.25
2019-03-10T10:52:59.182Z,1777.50
2019-03-10T10:53:59.177Z,1012.50
2019-03-10T10:54:59.189Z,1051.88
2019-03-10T10:55:59.216Z,1524.38
2019-03-10T10:56:59.185Z,1558.13
2019-03-10T10:57:59.191Z,1850.63
2019-03-10T10:58:59.175Z,1676.25
2019-03-10T10:59:59.180Z,1501.88
2019-03-10T11:00:59.197Z,1501.88
2019-03-10T11:01:59.167Z,1743.75
2019-03-10T11:02:59.170Z,1771.88
2019-03-10T11:03:59.165Z,1687.50
2019-03-10T11:04:59.163Z,1575.00
2019-03-10T11:05:59.232Z,1305.00
2019-03-10T11:06:59.168Z,1333.13
2019-03-10T11:07:59.163Z,1226.25
2019-03-10T11:08:59.166Z,1006.88
2019-03-10T11:09:59.171Z,883.13
2019-03-10T11:10:59.202Z,871.88
2019-03-10T11:11:59.194Z,821.25
2019-03-10T11:12:59.171Z,607.50
2019-03-10T11:13:59.173Z,607.50
2019-03-10T11:14:59.170Z,787.50
2019-03-10T11:15:59.973Z,776.25
2019-03-10T11:16:59.170Z,849.38
2019-03-10T11:18:08.884Z,1158.75
2019-03-10T11:18:59.169Z,1580.63
2019-03-10T11:19:59.175Z,1625.63
2019-03-10T11:20:59.199Z,956.25
2019-03-10T11:21:59.198Z,748.13
2019-03-10T11:22:59.173Z,736.88
2019-03-10T11:23:59.175Z,675.00
2019-03-10T11:24:59.170Z,669.38
2019-03-10T11:25:59.197Z,646.88
2019-03-10T11:26:59.170Z,585.00
2019-03-10T11:27:59.171Z,562.50
2019-03-10T11:29:02.697Z,382.50
2019-03-10T11:29:59.173Z,483.75
2019-03-10T11:30:59.200Z,433.13
2019-03-10T11:31:59.176Z,421.88
2019-03-10T11:32:59.166Z,416.25
2019-03-10T11:33:59.166Z,528.75
2019-03-10T11:34:59.163Z,517.50
2019-03-10T11:35:59.168Z,551.25
2019-03-10T11:36:59.195Z,618.75
2019-03-10T11:37:59.162Z,568.13
2019-03-10T11:38:59.169Z,534.38
2019-03-10T11:39:59.164Z,568.13
2019-03-10T11:40:59.172Z,579.38
2019-03-10T11:41:59.199Z,562.50
2019-03-10T11:42:59.190Z,545.63
2019-03-10T11:43:59.160Z,556.88
2019-03-10T11:44:59.158Z,826.88
2019-03-10T11:45:59.159Z,1209.38
2019-03-10T11:46:59.198Z,2385.00
2019-03-10T11:47:59.159Z,1856.25
2019-03-10T11:48:59.186Z,1648.13
2019-03-10T11:49:59.169Z,1327.50
2019-03-10T11:50:59.160Z,1518.75
2019-03-10T11:51:59.199Z,1710.00
2019-03-10T11:52:59.159Z,1456.88
2019-03-10T11:53:59.161Z,1248.75
2019-03-10T11:54:59.159Z,1288.13
2019-03-10T11:55:59.164Z,1316.25
2019-03-10T11:56:59.191Z,1389.38
2019-03-10T11:57:59.174Z,1226.25
2019-03-10T11:58:59.162Z,1051.88
2019-03-10T11:59:59.168Z,1012.50
2019-03-10T12:00:59.168Z,911.25
2019-03-10T12:01:59.194Z,883.13
2019-03-10T12:02:59.164Z,939.38
2019-03-10T12:03:59.162Z,961.88
2019-03-10T12:04:59.208Z,860.63
2019-03-10T12:05:59.166Z,714.38
2019-03-10T12:06:59.200Z,585.00
2019-03-10T12:07:59.195Z,483.75
2019-03-10T12:08:59.161Z,450.00
2019-03-10T12:09:59.170Z,500.63
2019-03-10T12:10:59.171Z,658.13
2019-03-10T12:11:59.166Z,641.25
2019-03-10T12:12:59.195Z,534.38
2019-03-10T12:13:59.167Z,489.38
2019-03-10T12:14:59.170Z,478.13
2019-03-10T12:15:59.172Z,461.25
2019-03-10T12:16:59.168Z,736.88
2019-03-10T12:17:59.195Z,1445.63
2019-03-10T12:18:59.194Z,4258.13
2019-03-10T12:19:59.179Z,3588.75
2019-03-10T12:20:59.166Z,3121.88
2019-03-10T12:21:59.166Z,2019.38
2019-03-10T12:22:59.200Z,2953.13
2019-03-10T12:23:59.170Z,3127.50
2019-03-10T12:24:59.320Z,2041.88
2019-03-10T12:25:59.169Z,1721.25
2019-03-10T12:26:59.173Z,4173.75
2019-03-10T12:27:59.206Z,2227.50
2019-03-10T12:28:59.186Z,2227.50
2019-03-10T12:29:59.190Z,2818.13
2019-03-10T12:30:59.185Z,4545.00
2019-03-10T12:31:59.189Z,2086.88
2019-03-10T12:32:59.227Z,3988.13
2019-03-10T12:33:59.203Z,2075.63
2019-03-10T12:34:59.211Z,2947.50
2019-03-10T12:35:59.207Z,3127.50
2019-03-10T12:36:59.246Z,2666.25
2019-03-10T12:37:59.223Z,1271.25
2019-03-10T12:38:59.257Z,3088.13
2019-03-10T12:39:59.232Z,3076.88
2019-03-10T12:40:59.241Z,2806.88
2019-03-10T12:41:59.247Z,2227.50
2019-03-10T12:42:59.279Z,1985.63
2019-03-10T12:43:59.288Z,2711.25
2019-03-10T12:44:59.264Z,2368.13
2019-03-10T12:45:59.280Z,1569.38
2019-03-10T12:46:59.285Z,4275.00
2019-03-10T12:47:59.308Z,1822.50
2019-03-10T12:48:59.320Z,1563.75